createdAt,value
2024-04-25T00:18:28.802Z,2.00
2024-04-25T00:48:36.099Z,1.63
2024-04-25T01:18:45.858Z,1.60
2024-04-25T01:48:53.134Z,1.27
2024-04-25T02:19:00.292Z,2.13
2024-04-25T02:49:07.325Z,1.90
2024-04-25T03:19:14.656Z,2.30
2024-04-25T03:49:21.342Z,2.40
2024-04-25T04:19:28.389Z,2.37
2024-04-25T04:49:35.151Z,1.70
2024-04-25T05:19:42.618Z,2.50
2024-04-25T05:49:49.536Z,2.23
2024-04-25T06:19:56.606Z,2.50
2024-04-25T06:50:03.374Z,2.40
2024-04-25T07:20:11.695Z,2.33
2024-04-25T07:50:18.560Z,2.50
2024-04-25T08:20:27.159Z,2.20
2024-04-25T08:50:36.759Z,3.20
2024-04-25T09:20:43.839Z,2.70
2024-04-25T09:50:55.541Z,2.93
2024-04-25T10:21:06.247Z,2.90
2024-04-25T10:51:14.653Z,3.37
2024-04-25T11:21:21.997Z,2.90
2024-04-25T11:51:28.778Z,2.90
2024-04-25T12:21:35.746Z,3.27
2024-04-25T12:51:42.719Z,3.30
2024-04-25T13:21:49.688Z,3.20
2024-04-25T13:51:56.395Z,3.30
2024-04-25T14:22:03.332Z,2.70
2024-04-25T14:52:10.147Z,2.47
2024-04-25T15:22:17.108Z,2.03
2024-04-25T15:52:23.792Z,1.97
2024-04-25T16:22:30.992Z,1.63
2024-04-25T16:52:37.717Z,2.10
2024-04-25T17:22:44.725Z,2.53
2024-04-25T17:52:51.466Z,1.60
2024-04-25T18:22:58.459Z,1.37
2024-04-25T18:53:05.420Z,1.20
2024-04-25T19:23:12.466Z,1.00
2024-04-25T19:53:19.223Z,1.07
2024-04-25T20:23:26.273Z,0.50
2024-04-25T20:53:32.992Z,0.50
2024-04-25T21:23:40.008Z,1.03
2024-04-25T21:53:46.848Z,0.50
2024-04-25T22:23:54.051Z,0.60
2024-04-25T22:54:00.889Z,0.40
2024-04-25T23:24:08.528Z,0.40
2024-04-25T23:54:15.326Z,0.80
